sensor_id;sensor_type;location;lat;lon;timestamp;P1;durP1;ratioP1;P2;durP2;ratioP2
43114;SDS011;28727;50.068;14.452;2023-06-14T00:05:49;69.13;;;32.13;;
43114;SDS011;28727;50.068;14.452;2023-06-14T00:26:05;69.93;;;32.63;;
43114;SDS011;28727;50.068;14.452;2023-06-14T00:41:19;69.28;;;32.42;;
43114;SDS011;28727;50.068;14.452;2023-06-14T00:59:23;67.70;;;31.83;;
43114;SDS011;28727;50.068;14.452;2023-06-14T01:12:21;67.80;;;32.15;;
43114;SDS011;28727;50.068;14.452;2023-06-14T01:30:30;68.65;;;32.17;;
43114;SDS011;28727;50.068;14.452;2023-06-14T01:48:20;68.72;;;32.08;;
43114;SDS011;28727;50.068;14.452;2023-06-14T01:55:56;65.00;;;32.88;;
43114;SDS011;28727;50.068;14.452;2023-06-14T02:39:13;133.85;;;49.17;;
43114;SDS011;28727;50.068;14.452;2023-06-14T02:41:47;127.05;;;47.75;;
43114;SDS011;28727;50.068;14.452;2023-06-14T02:44:19;125.75;;;47.33;;
43114;SDS011;28727;50.068;14.452;2023-06-14T02:46:52;127.20;;;48.50;;
43114;SDS011;28727;50.068;14.452;2023-06-14T02:49:24;127.63;;;48.92;;
43114;SDS011;28727;50.068;14.452;2023-06-14T02:51:56;128.60;;;48.95;;
43114;SDS011;28727;50.068;14.452;2023-06-14T02:54:28;126.57;;;46.85;;
43114;SDS011;28727;50.068;14.452;2023-06-14T02:57:01;127.82;;;47.63;;
43114;SDS011;28727;50.068;14.452;2023-06-14T02:59:33;127.82;;;47.63;;
43114;SDS011;28727;50.068;14.452;2023-06-14T03:02:08;128.05;;;47.80;;
43114;SDS011;28727;50.068;14.452;2023-06-14T03:04:42;126.22;;;47.08;;
43114;SDS011;28727;50.068;14.452;2023-06-14T03:07:19;127.00;;;46.65;;
43114;SDS011;28727;50.068;14.452;2023-06-14T03:09:54;126.63;;;47.45;;
43114;SDS011;28727;50.068;14.452;2023-06-14T03:12:26;128.35;;;48.78;;
43114;SDS011;28727;50.068;14.452;2023-06-14T03:14:58;125.85;;;46.75;;
43114;SDS011;28727;50.068;14.452;2023-06-14T03:17:40;127.40;;;48.17;;
43114;SDS011;28727;50.068;14.452;2023-06-14T03:20:19;127.07;;;47.50;;
43114;SDS011;28727;50.068;14.452;2023-06-14T03:22:51;122.75;;;43.95;;
43114;SDS011;28727;50.068;14.452;2023-06-14T03:25:26;126.82;;;46.55;;
43114;SDS011;28727;50.068;14.452;2023-06-14T03:30:34;126.43;;;47.78;;
43114;SDS011;28727;50.068;14.452;2023-06-14T03:33:06;125.93;;;46.92;;
43114;SDS011;28727;50.068;14.452;2023-06-14T03:35:46;126.28;;;47.78;;
43114;SDS011;28727;50.068;14.452;2023-06-14T03:38:18;124.68;;;46.38;;
43114;SDS011;28727;50.068;14.452;2023-06-14T03:40:50;125.97;;;47.13;;
43114;SDS011;28727;50.068;14.452;2023-06-14T03:43:23;126.70;;;47.67;;
43114;SDS011;28727;50.068;14.452;2023-06-14T03:45:55;128.43;;;47.40;;
43114;SDS011;28727;50.068;14.452;2023-06-14T03:48:29;125.47;;;46.83;;
43114;SDS011;28727;50.068;14.452;2023-06-14T03:51:01;125.55;;;46.83;;
43114;SDS011;28727;50.068;14.452;2023-06-14T03:53:34;126.63;;;47.92;;
43114;SDS011;28727;50.068;14.452;2023-06-14T03:56:14;127.40;;;47.55;;
43114;SDS011;28727;50.068;14.452;2023-06-14T03:58:47;124.80;;;46.42;;
43114;SDS011;28727;50.068;14.452;2023-06-14T04:01:19;126.50;;;46.95;;
43114;SDS011;28727;50.068;14.452;2023-06-14T04:03:51;125.63;;;46.28;;
43114;SDS011;28727;50.068;14.452;2023-06-14T04:06:23;126.63;;;47.17;;
43114;SDS011;28727;50.068;14.452;2023-06-14T04:08:56;126.90;;;46.78;;
43114;SDS011;28727;50.068;14.452;2023-06-14T04:11:28;126.05;;;46.85;;
43114;SDS011;28727;50.068;14.452;2023-06-14T04:14:01;127.22;;;47.38;;
43114;SDS011;28727;50.068;14.452;2023-06-14T04:16:34;125.30;;;46.10;;
43114;SDS011;28727;50.068;14.452;2023-06-14T04:19:06;124.57;;;45.83;;
43114;SDS011;28727;50.068;14.452;2023-06-14T04:21:38;127.32;;;47.90;;
43114;SDS011;28727;50.068;14.452;2023-06-14T04:24:10;127.07;;;47.42;;
43114;SDS011;28727;50.068;14.452;2023-06-14T04:26:48;127.80;;;47.47;;
43114;SDS011;28727;50.068;14.452;2023-06-14T04:29:22;127.68;;;48.90;;
43114;SDS011;28727;50.068;14.452;2023-06-14T04:32:04;125.72;;;46.22;;
43114;SDS011;28727;50.068;14.452;2023-06-14T04:34:36;127.80;;;47.58;;
43114;SDS011;28727;50.068;14.452;2023-06-14T04:37:08;127.97;;;47.63;;
43114;SDS011;28727;50.068;14.452;2023-06-14T04:39:43;126.05;;;46.38;;
43114;SDS011;28727;50.068;14.452;2023-06-14T04:42:14;128.73;;;47.65;;
43114;SDS011;28727;50.068;14.452;2023-06-14T04:44:48;131.05;;;50.58;;
43114;SDS011;28727;50.068;14.452;2023-06-14T04:47:21;128.68;;;48.00;;
43114;SDS011;28727;50.068;14.452;2023-06-14T04:49:53;127.05;;;47.28;;
43114;SDS011;28727;50.068;14.452;2023-06-14T04:52:26;128.75;;;47.30;;
43114;SDS011;28727;50.068;14.452;2023-06-14T04:54:59;126.60;;;47.03;;
43114;SDS011;28727;50.068;14.452;2023-06-14T04:57:31;129.52;;;48.75;;
43114;SDS011;28727;50.068;14.452;2023-06-14T05:00:04;131.82;;;50.60;;
43114;SDS011;28727;50.068;14.452;2023-06-14T05:02:38;131.93;;;50.00;;
43114;SDS011;28727;50.068;14.452;2023-06-14T05:05:12;131.38;;;49.75;;
43114;SDS011;28727;50.068;14.452;2023-06-14T05:07:44;133.40;;;51.83;;
43114;SDS011;28727;50.068;14.452;2023-06-14T05:10:17;132.88;;;50.53;;
43114;SDS011;28727;50.068;14.452;2023-06-14T05:12:51;132.15;;;50.35;;
43114;SDS011;28727;50.068;14.452;2023-06-14T05:15:24;130.25;;;49.97;;
43114;SDS011;28727;50.068;14.452;2023-06-14T05:17:57;132.23;;;51.50;;
43114;SDS011;28727;50.068;14.452;2023-06-14T05:20:29;133.30;;;51.10;;
43114;SDS011;28727;50.068;14.452;2023-06-14T05:23:01;135.95;;;53.25;;
43114;SDS011;28727;50.068;14.452;2023-06-14T05:25:34;134.68;;;51.05;;
43114;SDS011;28727;50.068;14.452;2023-06-14T05:28:07;130.82;;;48.33;;
43114;SDS011;28727;50.068;14.452;2023-06-14T05:30:39;132.82;;;51.17;;
43114;SDS011;28727;50.068;14.452;2023-06-14T05:33:11;132.85;;;50.63;;
43114;SDS011;28727;50.068;14.452;2023-06-14T05:35:44;132.65;;;50.53;;
43114;SDS011;28727;50.068;14.452;2023-06-14T05:38:16;135.25;;;52.63;;
43114;SDS011;28727;50.068;14.452;2023-06-14T05:40:48;131.30;;;49.80;;
43114;SDS011;28727;50.068;14.452;2023-06-14T05:43:19;132.43;;;50.75;;
43114;SDS011;28727;50.068;14.452;2023-06-14T05:45:51;133.05;;;50.85;;
43114;SDS011;28727;50.068;14.452;2023-06-14T05:48:23;133.00;;;50.35;;
43114;SDS011;28727;50.068;14.452;2023-06-14T05:50:55;133.38;;;50.42;;
43114;SDS011;28727;50.068;14.452;2023-06-14T05:53:27;135.07;;;52.30;;
43114;SDS011;28727;50.068;14.452;2023-06-14T05:56:01;133.80;;;51.88;;
43114;SDS011;28727;50.068;14.452;2023-06-14T05:58:33;133.93;;;50.85;;
43114;SDS011;28727;50.068;14.452;2023-06-14T06:01:05;133.32;;;50.50;;
43114;SDS011;28727;50.068;14.452;2023-06-14T06:03:37;134.10;;;51.50;;
43114;SDS011;28727;50.068;14.452;2023-06-14T06:06:09;132.10;;;50.30;;
43114;SDS011;28727;50.068;14.452;2023-06-14T06:08:41;135.85;;;52.20;;
43114;SDS011;28727;50.068;14.452;2023-06-14T06:11:13;132.60;;;49.50;;
43114;SDS011;28727;50.068;14.452;2023-06-14T06:13:45;135.00;;;53.00;;
43114;SDS011;28727;50.068;14.452;2023-06-14T06:16:17;134.13;;;51.20;;
43114;SDS011;28727;50.068;14.452;2023-06-14T06:18:51;135.10;;;51.60;;
43114;SDS011;28727;50.068;14.452;2023-06-14T06:21:23;126.82;;;52.53;;
43114;SDS011;28727;50.068;14.452;2023-06-14T06:23:58;127.13;;;49.83;;
43114;SDS011;28727;50.068;14.452;2023-06-14T06:26:30;136.25;;;52.67;;
43114;SDS011;28727;50.068;14.452;2023-06-14T06:29:02;134.02;;;51.15;;
43114;SDS011;28727;50.068;14.452;2023-06-14T06:31:34;135.77;;;53.35;;
43114;SDS011;28727;50.068;14.452;2023-06-14T06:34:06;137.00;;;53.70;;
43114;SDS011;28727;50.068;14.452;2023-06-14T06:36:37;133.73;;;53.05;;
43114;SDS011;28727;50.068;14.452;2023-06-14T06:39:09;133.63;;;50.85;;
43114;SDS011;28727;50.068;14.452;2023-06-14T06:41:41;134.85;;;52.17;;
43114;SDS011;28727;50.068;14.452;2023-06-14T06:44:13;135.90;;;54.05;;
43114;SDS011;28727;50.068;14.452;2023-06-14T06:46:45;134.00;;;51.97;;
43114;SDS011;28727;50.068;14.452;2023-06-14T06:49:18;134.82;;;53.45;;
43114;SDS011;28727;50.068;14.452;2023-06-14T06:52:03;134.20;;;51.78;;
43114;SDS011;28727;50.068;14.452;2023-06-14T06:54:37;138.35;;;55.13;;
43114;SDS011;28727;50.068;14.452;2023-06-14T06:57:09;141.35;;;55.47;;
43114;SDS011;28727;50.068;14.452;2023-06-14T06:59:42;139.77;;;54.63;;
43114;SDS011;28727;50.068;14.452;2023-06-14T07:02:14;139.77;;;56.15;;
43114;SDS011;28727;50.068;14.452;2023-06-14T07:04:46;145.05;;;55.47;;
43114;SDS011;28727;50.068;14.452;2023-06-14T07:07:18;139.82;;;53.58;;
43114;SDS011;28727;50.068;14.452;2023-06-14T07:09:52;139.00;;;54.55;;
43114;SDS011;28727;50.068;14.452;2023-06-14T07:12:24;141.88;;;54.13;;
43114;SDS011;28727;50.068;14.452;2023-06-14T07:14:56;141.57;;;53.00;;
43114;SDS011;28727;50.068;14.452;2023-06-14T07:17:30;141.20;;;54.20;;
43114;SDS011;28727;50.068;14.452;2023-06-14T07:20:02;141.88;;;55.00;;
43114;SDS011;28727;50.068;14.452;2023-06-14T07:22:39;135.55;;;52.47;;
43114;SDS011;28727;50.068;14.452;2023-06-14T07:25:14;141.25;;;56.08;;
43114;SDS011;28727;50.068;14.452;2023-06-14T07:27:47;132.38;;;52.22;;
43114;SDS011;28727;50.068;14.452;2023-06-14T07:30:21;142.02;;;55.13;;
43114;SDS011;28727;50.068;14.452;2023-06-14T07:32:57;141.52;;;54.47;;
43114;SDS011;28727;50.068;14.452;2023-06-14T07:35:29;129.35;;;50.58;;
43114;SDS011;28727;50.068;14.452;2023-06-14T07:38:01;143.50;;;56.53;;
43114;SDS011;28727;50.068;14.452;2023-06-14T07:40:36;131.55;;;53.85;;
43114;SDS011;28727;50.068;14.452;2023-06-14T07:43:08;133.30;;;54.63;;
43114;SDS011;28727;50.068;14.452;2023-06-14T07:45:39;131.30;;;54.30;;
43114;SDS011;28727;50.068;14.452;2023-06-14T07:50:59;139.63;;;54.05;;
43114;SDS011;28727;50.068;14.452;2023-06-14T07:53:32;130.50;;;52.15;;
43114;SDS011;28727;50.068;14.452;2023-06-14T07:56:04;144.13;;;58.22;;
43114;SDS011;28727;50.068;14.452;2023-06-14T07:58:36;143.98;;;57.92;;
43114;SDS011;28727;50.068;14.452;2023-06-14T08:01:08;136.88;;;53.28;;
43114;SDS011;28727;50.068;14.452;2023-06-14T08:03:40;127.85;;;51.08;;
43114;SDS011;28727;50.068;14.452;2023-06-14T08:06:13;140.80;;;56.10;;
43114;SDS011;28727;50.068;14.452;2023-06-14T08:08:45;127.28;;;51.90;;
43114;SDS011;28727;50.068;14.452;2023-06-14T08:11:17;142.70;;;56.58;;
43114;SDS011;28727;50.068;14.452;2023-06-14T08:13:49;142.02;;;56.28;;
43114;SDS011;28727;50.068;14.452;2023-06-14T08:16:21;130.27;;;51.08;;
43114;SDS011;28727;50.068;14.452;2023-06-14T08:18:52;139.30;;;53.83;;
43114;SDS011;28727;50.068;14.452;2023-06-14T08:21:24;140.10;;;55.00;;
43114;SDS011;28727;50.068;14.452;2023-06-14T08:23:58;131.77;;;52.17;;
43114;SDS011;28727;50.068;14.452;2023-06-14T08:26:32;131.45;;;52.97;;
43114;SDS011;28727;50.068;14.452;2023-06-14T08:29:04;141.55;;;56.50;;
43114;SDS011;28727;50.068;14.452;2023-06-14T08:31:36;128.75;;;53.38;;
43114;SDS011;28727;50.068;14.452;2023-06-14T08:34:08;127.15;;;51.50;;
43114;SDS011;28727;50.068;14.452;2023-06-14T08:36:40;135.30;;;55.83;;
43114;SDS011;28727;50.068;14.452;2023-06-14T08:39:14;127.22;;;55.10;;
43114;SDS011;28727;50.068;14.452;2023-06-14T08:41:46;132.18;;;54.65;;
43114;SDS011;28727;50.068;14.452;2023-06-14T08:44:21;130.48;;;55.00;;
43114;SDS011;28727;50.068;14.452;2023-06-14T08:46:54;127.40;;;55.50;;
43114;SDS011;28727;50.068;14.452;2023-06-14T08:49:28;135.98;;;55.25;;
43114;SDS011;28727;50.068;14.452;2023-06-14T08:52:02;130.45;;;52.92;;
43114;SDS011;28727;50.068;14.452;2023-06-14T08:54:35;139.52;;;52.80;;
43114;SDS011;28727;50.068;14.452;2023-06-14T08:57:14;140.52;;;53.88;;
43114;SDS011;28727;50.068;14.452;2023-06-14T08:59:48;139.90;;;54.40;;
43114;SDS011;28727;50.068;14.452;2023-06-14T09:02:23;125.53;;;52.08;;
43114;SDS011;28727;50.068;14.452;2023-06-14T09:04:56;139.77;;;53.78;;
43114;SDS011;28727;50.068;14.452;2023-06-14T09:10:09;139.20;;;54.78;;
43114;SDS011;28727;50.068;14.452;2023-06-14T09:12:46;141.05;;;56.28;;
43114;SDS011;28727;50.068;14.452;2023-06-14T09:15:18;141.05;;;55.80;;
43114;SDS011;28727;50.068;14.452;2023-06-14T09:17:51;129.93;;;53.42;;
43114;SDS011;28727;50.068;14.452;2023-06-14T09:20:24;128.25;;;53.00;;
43114;SDS011;28727;50.068;14.452;2023-06-14T09:22:56;126.20;;;51.70;;
43114;SDS011;28727;50.068;14.452;2023-06-14T09:25:29;130.02;;;55.83;;
43114;SDS011;28727;50.068;14.452;2023-06-14T09:28:10;123.50;;;57.05;;
43114;SDS011;28727;50.068;14.452;2023-06-14T09:30:42;120.32;;;52.33;;
43114;SDS011;28727;50.068;14.452;2023-06-14T09:33:17;131.82;;;55.58;;
43114;SDS011;28727;50.068;14.452;2023-06-14T09:35:52;122.03;;;57.03;;
43114;SDS011;28727;50.068;14.452;2023-06-14T09:38:26;130.38;;;57.58;;
43114;SDS011;28727;50.068;14.452;2023-06-14T09:40:58;124.50;;;58.47;;
43114;SDS011;28727;50.068;14.452;2023-06-14T09:43:30;127.25;;;55.47;;
43114;SDS011;28727;50.068;14.452;2023-06-14T09:46:05;128.93;;;56.53;;
43114;SDS011;28727;50.068;14.452;2023-06-14T09:51:14;123.88;;;53.88;;
43114;SDS011;28727;50.068;14.452;2023-06-14T09:53:49;122.05;;;53.08;;
43114;SDS011;28727;50.068;14.452;2023-06-14T09:56:23;125.00;;;55.10;;
43114;SDS011;28727;50.068;14.452;2023-06-14T09:59:01;119.63;;;54.03;;
43114;SDS011;28727;50.068;14.452;2023-06-14T10:01:41;131.40;;;57.10;;
43114;SDS011;28727;50.068;14.452;2023-06-14T10:04:14;123.00;;;54.42;;
43114;SDS011;28727;50.068;14.452;2023-06-14T10:06:47;117.95;;;51.35;;
43114;SDS011;28727;50.068;14.452;2023-06-14T10:09:19;122.82;;;52.47;;
43114;SDS011;28727;50.068;14.452;2023-06-14T10:14:26;125.80;;;53.78;;
43114;SDS011;28727;50.068;14.452;2023-06-14T10:17:06;128.60;;;55.05;;
43114;SDS011;28727;50.068;14.452;2023-06-14T10:19:47;130.77;;;54.15;;
43114;SDS011;28727;50.068;14.452;2023-06-14T10:22:29;132.80;;;56.67;;
43114;SDS011;28727;50.068;14.452;2023-06-14T10:25:07;131.10;;;57.03;;
43114;SDS011;28727;50.068;14.452;2023-06-14T10:27:44;119.97;;;52.90;;
43114;SDS011;28727;50.068;14.452;2023-06-14T10:30:25;126.80;;;56.47;;
43114;SDS011;28727;50.068;14.452;2023-06-14T10:33:04;131.90;;;52.90;;
43114;SDS011;28727;50.068;14.452;2023-06-14T10:35:38;133.25;;;55.63;;
43114;SDS011;28727;50.068;14.452;2023-06-14T10:38:11;131.88;;;55.28;;
43114;SDS011;28727;50.068;14.452;2023-06-14T10:40:51;133.95;;;55.70;;
43114;SDS011;28727;50.068;14.452;2023-06-14T10:43:24;121.72;;;52.58;;
43114;SDS011;28727;50.068;14.452;2023-06-14T10:46:17;133.57;;;55.13;;
43114;SDS011;28727;50.068;14.452;2023-06-14T10:48:49;129.10;;;53.35;;
43114;SDS011;28727;50.068;14.452;2023-06-14T10:51:29;123.97;;;52.40;;
43114;SDS011;28727;50.068;14.452;2023-06-14T10:54:01;126.18;;;53.65;;
43114;SDS011;28727;50.068;14.452;2023-06-14T10:56:33;128.77;;;56.00;;
43114;SDS011;28727;50.068;14.452;2023-06-14T10:59:05;117.85;;;49.78;;
43114;SDS011;28727;50.068;14.452;2023-06-14T11:01:45;120.93;;;53.30;;
43114;SDS011;28727;50.068;14.452;2023-06-14T11:04:48;125.60;;;56.10;;
43114;SDS011;28727;50.068;14.452;2023-06-14T11:10:37;122.65;;;54.95;;
43114;SDS011;28727;50.068;14.452;2023-06-14T11:13:10;124.93;;;54.78;;
43114;SDS011;28727;50.068;14.452;2023-06-14T11:15:46;122.90;;;56.45;;
43114;SDS011;28727;50.068;14.452;2023-06-14T11:18:19;116.70;;;55.45;;
43114;SDS011;28727;50.068;14.452;2023-06-14T11:20:55;123.72;;;59.08;;
43114;SDS011;28727;50.068;14.452;2023-06-14T11:23:27;120.85;;;58.03;;
43114;SDS011;28727;50.068;14.452;2023-06-14T11:25:59;117.43;;;55.47;;
43114;SDS011;28727;50.068;14.452;2023-06-14T11:28:40;121.78;;;59.17;;
43114;SDS011;28727;50.068;14.452;2023-06-14T11:31:12;126.32;;;56.83;;
43114;SDS011;28727;50.068;14.452;2023-06-14T11:33:48;124.53;;;56.08;;
43114;SDS011;28727;50.068;14.452;2023-06-14T11:36:21;119.78;;;57.88;;
43114;SDS011;28727;50.068;14.452;2023-06-14T11:39:03;121.13;;;57.22;;
43114;SDS011;28727;50.068;14.452;2023-06-14T11:41:43;122.07;;;58.97;;
43114;SDS011;28727;50.068;14.452;2023-06-14T11:44:18;122.85;;;58.78;;
43114;SDS011;28727;50.068;14.452;2023-06-14T11:46:50;121.47;;;59.55;;
43114;SDS011;28727;50.068;14.452;2023-06-14T11:49:23;119.80;;;59.55;;
43114;SDS011;28727;50.068;14.452;2023-06-14T11:51:55;121.38;;;56.80;;
43114;SDS011;28727;50.068;14.452;2023-06-14T11:54:27;121.75;;;57.45;;
43114;SDS011;28727;50.068;14.452;2023-06-14T11:56:59;121.70;;;56.42;;
43114;SDS011;28727;50.068;14.452;2023-06-14T11:59:31;121.20;;;54.92;;
43114;SDS011;28727;50.068;14.452;2023-06-14T12:02:03;121.43;;;54.40;;
43114;SDS011;28727;50.068;14.452;2023-06-14T12:04:35;117.22;;;50.85;;
43114;SDS011;28727;50.068;14.452;2023-06-14T12:07:11;130.13;;;54.55;;
43114;SDS011;28727;50.068;14.452;2023-06-14T12:12:25;134.57;;;54.85;;
43114;SDS011;28727;50.068;14.452;2023-06-14T12:14:58;134.70;;;55.90;;
43114;SDS011;28727;50.068;14.452;2023-06-14T12:17:33;127.10;;;52.17;;
43114;SDS011;28727;50.068;14.452;2023-06-14T12:20:06;123.82;;;51.20;;
43114;SDS011;28727;50.068;14.452;2023-06-14T12:22:55;136.23;;;55.88;;
43114;SDS011;28727;50.068;14.452;2023-06-14T12:25:29;141.23;;;58.67;;
43114;SDS011;28727;50.068;14.452;2023-06-14T12:28:06;138.15;;;54.83;;
43114;SDS011;28727;50.068;14.452;2023-06-14T12:30:41;139.00;;;55.35;;
43114;SDS011;28727;50.068;14.452;2023-06-14T12:33:13;127.28;;;52.33;;
43114;SDS011;28727;50.068;14.452;2023-06-14T12:35:45;130.07;;;54.60;;
43114;SDS011;28727;50.068;14.452;2023-06-14T12:38:17;123.35;;;51.63;;
43114;SDS011;28727;50.068;14.452;2023-06-14T12:40:49;124.60;;;53.90;;
43114;SDS011;28727;50.068;14.452;2023-06-14T12:43:21;124.30;;;52.47;;
43114;SDS011;28727;50.068;14.452;2023-06-14T12:45:53;122.03;;;52.63;;
43114;SDS011;28727;50.068;14.452;2023-06-14T12:48:25;126.70;;;53.58;;
43114;SDS011;28727;50.068;14.452;2023-06-14T12:51:02;121.45;;;52.92;;
43114;SDS011;28727;50.068;14.452;2023-06-14T12:53:34;131.45;;;55.33;;
43114;SDS011;28727;50.068;14.452;2023-06-14T12:56:06;126.95;;;55.15;;
43114;SDS011;28727;50.068;14.452;2023-06-14T12:58:41;123.05;;;55.65;;
43114;SDS011;28727;50.068;14.452;2023-06-14T13:01:13;119.65;;;52.85;;
43114;SDS011;28727;50.068;14.452;2023-06-14T13:03:48;126.07;;;51.83;;
43114;SDS011;28727;50.068;14.452;2023-06-14T13:06:22;123.25;;;55.20;;
43114;SDS011;28727;50.068;14.452;2023-06-14T13:08:54;130.13;;;52.83;;
43114;SDS011;28727;50.068;14.452;2023-06-14T13:11:29;124.85;;;55.03;;
43114;SDS011;28727;50.068;14.452;2023-06-14T13:14:01;126.55;;;54.30;;
43114;SDS011;28727;50.068;14.452;2023-06-14T13:16:51;119.45;;;52.85;;
43114;SDS011;28727;50.068;14.452;2023-06-14T13:19:24;125.45;;;54.42;;
43114;SDS011;28727;50.068;14.452;2023-06-14T13:21:56;124.95;;;53.33;;
43114;SDS011;28727;50.068;14.452;2023-06-14T13:24:28;133.88;;;54.35;;
43114;SDS011;28727;50.068;14.452;2023-06-14T13:27:01;122.85;;;54.83;;
43114;SDS011;28727;50.068;14.452;2023-06-14T13:29:33;130.63;;;55.17;;
43114;SDS011;28727;50.068;14.452;2023-06-14T13:34:39;123.05;;;49.97;;
43114;SDS011;28727;50.068;14.452;2023-06-14T13:37:11;121.65;;;49.25;;
43114;SDS011;28727;50.068;14.452;2023-06-14T13:39:43;134.45;;;54.15;;
43114;SDS011;28727;50.068;14.452;2023-06-14T13:42:15;123.45;;;53.13;;
43114;SDS011;28727;50.068;14.452;2023-06-14T13:44:47;133.07;;;54.95;;
43114;SDS011;28727;50.068;14.452;2023-06-14T13:47:18;129.60;;;53.97;;
43114;SDS011;28727;50.068;14.452;2023-06-14T13:49:51;132.23;;;53.78;;
43114;SDS011;28727;50.068;14.452;2023-06-14T13:52:23;122.47;;;49.30;;
43114;SDS011;28727;50.068;14.452;2023-06-14T13:54:55;138.68;;;55.25;;
43114;SDS011;28727;50.068;14.452;2023-06-14T13:57:27;137.68;;;54.25;;
43114;SDS011;28727;50.068;14.452;2023-06-14T14:00:01;126.22;;;52.35;;
43114;SDS011;28727;50.068;14.452;2023-06-14T14:02:42;142.00;;;58.45;;
43114;SDS011;28727;50.068;14.452;2023-06-14T14:05:14;131.65;;;53.75;;
43114;SDS011;28727;50.068;14.452;2023-06-14T14:07:46;140.40;;;56.30;;
43114;SDS011;28727;50.068;14.452;2023-06-14T14:10:18;138.23;;;55.10;;
43114;SDS011;28727;50.068;14.452;2023-06-14T14:12:52;140.88;;;57.58;;
43114;SDS011;28727;50.068;14.452;2023-06-14T14:15:26;139.00;;;55.70;;
43114;SDS011;28727;50.068;14.452;2023-06-14T14:17:58;127.15;;;50.30;;
43114;SDS011;28727;50.068;14.452;2023-06-14T14:23:04;137.38;;;54.78;;
43114;SDS011;28727;50.068;14.452;2023-06-14T14:25:36;127.28;;;50.35;;
43114;SDS011;28727;50.068;14.452;2023-06-14T14:28:08;125.32;;;51.00;;
43114;SDS011;28727;50.068;14.452;2023-06-14T14:30:40;138.77;;;53.78;;
43114;SDS011;28727;50.068;14.452;2023-06-14T14:33:12;139.15;;;54.85;;
43114;SDS011;28727;50.068;14.452;2023-06-14T14:35:47;138.52;;;53.58;;
43114;SDS011;28727;50.068;14.452;2023-06-14T14:38:19;129.32;;;50.72;;
43114;SDS011;28727;50.068;14.452;2023-06-14T14:40:50;134.10;;;51.80;;
43114;SDS011;28727;50.068;14.452;2023-06-14T14:43:22;138.82;;;53.83;;
43114;SDS011;28727;50.068;14.452;2023-06-14T14:45:54;139.00;;;55.38;;
43114;SDS011;28727;50.068;14.452;2023-06-14T14:48:26;141.02;;;56.90;;
43114;SDS011;28727;50.068;14.452;2023-06-14T14:50:58;127.85;;;52.13;;
43114;SDS011;28727;50.068;14.452;2023-06-14T14:53:31;139.32;;;55.67;;
43114;SDS011;28727;50.068;14.452;2023-06-14T14:56:03;136.40;;;52.35;;
43114;SDS011;28727;50.068;14.452;2023-06-14T14:58:37;125.88;;;48.83;;
43114;SDS011;28727;50.068;14.452;2023-06-14T15:01:09;137.23;;;53.08;;
43114;SDS011;28727;50.068;14.452;2023-06-14T15:03:42;127.18;;;49.50;;
43114;SDS011;28727;50.068;14.452;2023-06-14T15:06:30;137.20;;;53.70;;
43114;SDS011;28727;50.068;14.452;2023-06-14T15:09:01;139.85;;;55.15;;
43114;SDS011;28727;50.068;14.452;2023-06-14T15:11:33;138.38;;;53.83;;
43114;SDS011;28727;50.068;14.452;2023-06-14T15:14:05;138.30;;;51.28;;
43114;SDS011;28727;50.068;14.452;2023-06-14T15:16:37;129.43;;;48.63;;
43114;SDS011;28727;50.068;14.452;2023-06-14T15:19:09;139.93;;;53.60;;
43114;SDS011;28727;50.068;14.452;2023-06-14T15:21:41;137.05;;;52.95;;
43114;SDS011;28727;50.068;14.452;2023-06-14T15:24:13;139.30;;;54.80;;
43114;SDS011;28727;50.068;14.452;2023-06-14T15:26:45;138.75;;;55.13;;
43114;SDS011;28727;50.068;14.452;2023-06-14T15:29:17;137.00;;;52.38;;
43114;SDS011;28727;50.068;14.452;2023-06-14T15:31:49;127.28;;;49.38;;
43114;SDS011;28727;50.068;14.452;2023-06-14T15:34:21;139.48;;;55.90;;
43114;SDS011;28727;50.068;14.452;2023-06-14T15:36:53;125.72;;;48.28;;
43114;SDS011;28727;50.068;14.452;2023-06-14T15:39:26;139.23;;;53.22;;
43114;SDS011;28727;50.068;14.452;2023-06-14T15:41:58;138.68;;;54.17;;
43114;SDS011;28727;50.068;14.452;2023-06-14T15:44:31;137.85;;;53.58;;
43114;SDS011;28727;50.068;14.452;2023-06-14T15:47:03;133.38;;;54.70;;
43114;SDS011;28727;50.068;14.452;2023-06-14T15:49:35;131.38;;;51.80;;
43114;SDS011;28727;50.068;14.452;2023-06-14T15:52:07;138.48;;;54.65;;
43114;SDS011;28727;50.068;14.452;2023-06-14T15:54:39;125.10;;;49.75;;
43114;SDS011;28727;50.068;14.452;2023-06-14T15:57:10;138.18;;;53.50;;
43114;SDS011;28727;50.068;14.452;2023-06-14T15:59:42;139.73;;;54.30;;
43114;SDS011;28727;50.068;14.452;2023-06-14T16:02:14;139.18;;;56.00;;
43114;SDS011;28727;50.068;14.452;2023-06-14T16:04:47;139.52;;;55.38;;
43114;SDS011;28727;50.068;14.452;2023-06-14T16:07:21;139.70;;;54.75;;
43114;SDS011;28727;50.068;14.452;2023-06-14T16:09:53;139.57;;;54.65;;
43114;SDS011;28727;50.068;14.452;2023-06-14T16:12:25;127.80;;;51.47;;
43114;SDS011;28727;50.068;14.452;2023-06-14T16:14:57;127.72;;;52.88;;
43114;SDS011;28727;50.068;14.452;2023-06-14T16:17:28;128.00;;;51.72;;
43114;SDS011;28727;50.068;14.452;2023-06-14T16:20:01;128.07;;;52.25;;
43114;SDS011;28727;50.068;14.452;2023-06-14T16:22:33;127.05;;;53.67;;
43114;SDS011;28727;50.068;14.452;2023-06-14T16:25:08;134.27;;;54.15;;
43114;SDS011;28727;50.068;14.452;2023-06-14T16:27:40;137.35;;;55.47;;
43114;SDS011;28727;50.068;14.452;2023-06-14T16:30:12;127.57;;;53.53;;
43114;SDS011;28727;50.068;14.452;2023-06-14T16:32:44;125.05;;;52.75;;
43114;SDS011;28727;50.068;14.452;2023-06-14T16:35:16;133.18;;;53.15;;
43114;SDS011;28727;50.068;14.452;2023-06-14T16:37:48;131.52;;;51.78;;
43114;SDS011;28727;50.068;14.452;2023-06-14T16:40:20;130.13;;;53.30;;
43114;SDS011;28727;50.068;14.452;2023-06-14T16:42:51;129.85;;;52.60;;
43114;SDS011;28727;50.068;14.452;2023-06-14T16:45:23;133.68;;;54.33;;
43114;SDS011;28727;50.068;14.452;2023-06-14T16:47:55;127.57;;;53.83;;
43114;SDS011;28727;50.068;14.452;2023-06-14T16:50:27;119.90;;;49.72;;
43114;SDS011;28727;50.068;14.452;2023-06-14T16:52:59;120.57;;;53.25;;
43114;SDS011;28727;50.068;14.452;2023-06-14T16:55:31;122.50;;;50.60;;
43114;SDS011;28727;50.068;14.452;2023-06-14T16:58:05;133.75;;;53.30;;
43114;SDS011;28727;50.068;14.452;2023-06-14T17:00:37;125.15;;;49.63;;
43114;SDS011;28727;50.068;14.452;2023-06-14T17:03:09;133.27;;;55.13;;
43114;SDS011;28727;50.068;14.452;2023-06-14T17:05:54;120.70;;;49.92;;
43114;SDS011;28727;50.068;14.452;2023-06-14T17:08:28;124.53;;;53.05;;
43114;SDS011;28727;50.068;14.452;2023-06-14T17:11:00;122.20;;;50.08;;
43114;SDS011;28727;50.068;14.452;2023-06-14T17:13:33;136.02;;;54.30;;